Time;durP1;ratioP1;P1;durP2;ratioP2;P2;SDS_P1;SDS_P2;PMS_P1;PMS_P2;Temp;Humidity;BMP_temperature;BMP_pressure;BME280_temperature;BME280_humidity;BME280_pressure;Samples;Min_cycle;Max_cycle;Signal;HPM_P1;HPM_P2
2022/12/25 00:00:11;;;;;;;;;;;21.20;69.80;;;;;;6251176;28;19964;-52
2022/12/25 00:03:22;;;;;;;;;;;20.60;69.40;;;;;;6250107;28;19932;-52
2022/12/25 00:06:23;;;;;;;;;;;21.30;69.90;;;;;;6251163;28;19921;-54
2022/12/25 00:09:24;;;;;;;;;;;21.40;70.20;;;;;;6251026;28;20331;-51
2022/12/25 00:12:26;;;;;;;;;;;20.50;70.10;;;;;;6251252;28;19936;-51
2022/12/25 00:15:27;;;;;;;;;;;21.30;69.90;;;;;;6250985;28;19921;-51
2022/12/25 00:18:29;;;;;;;;;;;20.60;69.50;;;;;;6250912;28;19967;-52
2022/12/25 00:21:32;;;;;;;;;;;21.00;69.00;;;;;;6251420;28;20281;-53
2022/12/25 00:24:33;;;;;;;;;;;21.00;69.30;;;;;;6250871;28;19921;-52
2022/12/25 00:27:36;;;;;;;;;;;20.70;69.50;;;;;;6250845;28;19921;-52
2022/12/25 00:30:39;;;;;;;;;;;21.00;69.70;;;;;;6251218;28;20361;-48
2022/12/25 00:33:42;;;;;;;;;;;20.90;69.10;;;;;;6250858;28;19921;-51
2022/12/25 00:36:44;;;;;;;;;;;21.00;69.70;;;;;;6250565;28;19921;-50
2022/12/25 00:39:46;;;;;;;;;;;21.00;69.80;;;;;;6250851;28;19936;-52
2022/12/25 00:42:48;;;;;;;;;;;20.90;69.60;;;;;;6250561;28;19971;-52
2022/12/25 00:45:53;;;;;;;;;;;21.60;70.10;;;;;;6250437;28;19921;-53
2022/12/25 00:48:57;;;;;;;;;;;20.70;69.40;;;;;;6250791;28;20380;-53
2022/12/25 00:51:58;;;;;;;;;;;20.70;69.50;;;;;;6250311;28;19921;-53
2022/12/25 00:55:00;;;;;;;;;;;21.00;69.70;;;;;;6250260;28;19928;-51
2022/12/25 00:58:01;;;;;;;;;;;21.00;69.70;;;;;;6250021;28;19925;-50
2022/12/25 01:01:03;;;;;;;;;;;20.80;69.80;;;;;;6250241;28;20297;-51
2022/12/25 01:04:05;;;;;;;;;;;20.80;69.60;;;;;;6250112;28;19936;-53
2022/12/25 01:07:06;;;;;;;;;;;20.70;69.40;;;;;;6249877;28;19995;-52
2022/12/25 01:13:21;;;;;;;;;;;21.20;69.70;;;;;;6249689;28;20013;-53
2022/12/25 01:16:22;;;;;;;;;;;21.60;70.10;;;;;;6250110;28;19921;-51
2022/12/25 01:19:24;;;;;;;;;;;20.70;69.70;;;;;;6250028;28;19921;-52
2022/12/25 01:22:25;;;;;;;;;;;20.90;69.60;;;;;;6250070;28;20001;-52
2022/12/25 01:25:27;;;;;;;;;;;20.80;69.40;;;;;;6249553;28;19987;-53
2022/12/25 01:28:28;;;;;;;;;;;20.80;69.70;;;;;;6249797;28;19967;-50
2022/12/25 01:31:29;;;;;;;;;;;21.20;69.90;;;;;;6249802;28;19921;-53
2022/12/25 01:34:31;;;;;;;;;;;21.00;69.20;;;;;;6249331;28;20016;-53
2022/12/25 01:37:33;;;;;;;;;;;21.20;69.90;;;;;;6249658;28;20392;-51
2022/12/25 01:40:34;;;;;;;;;;;20.70;69.80;;;;;;6249477;28;19921;-52
2022/12/25 01:43:55;;;;;;;;;;;20.70;69.80;;;;;;6249202;28;19921;-51
2022/12/25 01:46:56;;;;;;;;;;;21.50;70.00;;;;;;6248942;28;19928;-52
2022/12/25 01:49:58;;;;;;;;;;;21.20;70.00;;;;;;6249096;28;19921;-50
2022/12/25 01:52:59;;;;;;;;;;;20.60;69.60;;;;;;6249021;28;19962;-51
2022/12/25 01:56:04;;;;;;;;;;;21.20;70.00;;;;;;6249347;28;19971;-52
2022/12/25 01:59:07;;;;;;;;;;;21.10;69.70;;;;;;6249053;28;19986;-52
2022/12/25 02:02:08;;;;;;;;;;;20.90;69.70;;;;;;6248915;28;20374;-53
2022/12/25 02:05:13;;;;;;;;;;;20.80;69.80;;;;;;6249227;28;19928;-50
2022/12/25 02:08:15;;;;;;;;;;;21.00;69.10;;;;;;6248912;28;20357;-52
2022/12/25 02:14:34;;;;;;;;;;;20.80;69.70;;;;;;6248312;28;19921;-52
2022/12/25 02:17:40;;;;;;;;;;;21.50;70.00;;;;;;6248767;28;20305;-51
2022/12/25 02:20:52;;;;;;;;;;;21.00;69.70;;;;;;6248677;28;19924;-48
2022/12/25 02:24:05;;;;;;;;;;;20.70;69.60;;;;;;6248471;28;20361;-51
2022/12/25 02:27:13;;;;;;;;;;;21.20;69.90;;;;;;6248814;28;19921;-52
2022/12/25 02:30:14;;;;;;;;;;;20.70;69.60;;;;;;6248246;28;19975;-51
2022/12/25 02:36:33;;;;;;;;;;;20.90;69.00;;;;;;6248579;28;19921;-51
2022/12/25 03:12:16;;;;;;;;;;;21.00;69.90;;;;;;6247902;28;19921;-52
2022/12/25 03:18:33;;;;;;;;;;;20.90;69.60;;;;;;6247575;28;19925;-52
2022/12/25 03:28:02;;;;;;;;;;;20.70;69.60;;;;;;6248103;28;19925;-51
2022/12/25 03:31:10;;;;;;;;;;;20.80;69.70;;;;;;6247214;28;19964;-51
2022/12/25 04:36:28;;;;;;;;;;;20.90;69.10;;;;;;6250268;28;20353;-52
2022/12/25 04:39:30;;;;;;;;;;;20.50;69.70;;;;;;6250555;28;19921;-52
2022/12/25 04:42:31;;;;;;;;;;;20.70;69.60;;;;;;6250757;28;19936;-50
2022/12/25 04:45:32;;;;;;;;;;;20.70;69.80;;;;;;6250434;28;19921;-51
2022/12/25 04:48:34;;;;;;;;;;;21.20;70.10;;;;;;6250371;28;19925;-51
2022/12/25 04:51:35;;;;;;;;;;;20.60;69.60;;;;;;6250519;28;19921;-52
2022/12/25 04:54:38;;;;;;;;;;;20.70;69.80;;;;;;6250501;28;20292;-52
2022/12/25 04:57:39;;;;;;;;;;;21.60;70.30;;;;;;6250235;28;19921;-51
2022/12/25 05:00:40;;;;;;;;;;;21.00;70.00;;;;;;6250390;28;19971;-50
2022/12/25 05:03:42;;;;;;;;;;;20.60;69.70;;;;;;6250138;28;19952;-50
2022/12/25 05:06:43;;;;;;;;;;;21.20;69.90;;;;;;6250019;28;19975;-53
2022/12/25 05:09:45;;;;;;;;;;;21.10;70.00;;;;;;6250311;28;19920;-50
2022/12/25 05:12:46;;;;;;;;;;;20.70;69.80;;;;;;6249906;28;19925;-51
2022/12/25 05:15:48;;;;;;;;;;;20.60;69.70;;;;;;6249877;28;19921;-52
2022/12/25 05:18:50;;;;;;;;;;;20.80;69.90;;;;;;6249018;28;20361;-53
2022/12/25 05:21:51;;;;;;;;;;;20.60;69.70;;;;;;6247695;28;19960;-50
2022/12/25 05:24:53;;;;;;;;;;;20.70;69.80;;;;;;6249585;28;19924;-50
2022/12/25 05:27:54;;;;;;;;;;;21.50;70.20;;;;;;6249931;28;19921;-53
2022/12/25 05:30:56;;;;;;;;;;;21.10;70.10;;;;;;6249571;28;19921;-53
2022/12/25 05:33:57;;;;;;;;;;;20.90;69.30;;;;;;6249329;28;19928;-52
2022/12/25 05:36:59;;;;;;;;;;;20.60;69.70;;;;;;6249313;28;20369;-52
2022/12/25 05:40:00;;;;;;;;;;;20.70;69.80;;;;;;6249572;28;19928;-51
2022/12/25 05:43:02;;;;;;;;;;;20.90;69.90;;;;;;6249438;28;19932;-52
2022/12/25 05:46:04;;;;;;;;;;;21.00;70.00;;;;;;6249192;28;19928;-52
2022/12/25 05:49:05;;;;;;;;;;;21.00;69.80;;;;;;6249571;28;20384;-47
2022/12/25 05:52:07;;;;;;;;;;;20.70;69.90;;;;;;6249075;28;20320;-53
2022/12/25 05:55:09;;;;;;;;;;;21.10;70.10;;;;;;6249060;28;20372;-52
2022/12/25 05:58:11;;;;;;;;;;;21.60;70.20;;;;;;6249213;28;20357;-49
2022/12/25 06:01:13;;;;;;;;;;;20.90;69.80;;;;;;6248544;28;19924;-51
2022/12/25 06:04:14;;;;;;;;;;;20.60;69.50;;;;;;6247671;28;20438;-53
2022/12/25 06:07:16;;;;;;;;;;;20.70;69.20;;;;;;6249055;28;19921;-52
2022/12/25 06:10:18;;;;;;;;;;;20.60;69.80;;;;;;6248792;28;20344;-53
2022/12/25 06:13:19;;;;;;;;;;;21.20;70.10;;;;;;6248659;28;19971;-53
2022/12/25 06:16:20;;;;;;;;;;;21.30;70.20;;;;;;6248885;28;19928;-51
2022/12/25 06:19:22;;;;;;;;;;;20.80;70.00;;;;;;6248689;28;19928;-53
2022/12/25 06:22:27;;;;;;;;;;;20.70;70.00;;;;;;6248483;28;19921;-51
2022/12/25 06:25:29;;;;;;;;;;;20.90;69.70;;;;;;6248061;28;19943;-51
2022/12/25 06:28:30;;;;;;;;;;;21.40;70.20;;;;;;6248540;28;20320;-52
2022/12/25 06:31:32;;;;;;;;;;;21.00;70.10;;;;;;6248266;28;19925;-49
2022/12/25 06:34:33;;;;;;;;;;;20.90;69.30;;;;;;6248575;28;20386;-53
2022/12/25 06:37:35;;;;;;;;;;;21.00;69.90;;;;;;6248457;28;19928;-51
2022/12/25 06:40:37;;;;;;;;;;;21.00;70.00;;;;;;6248181;28;20289;-52
2022/12/25 06:43:38;;;;;;;;;;;20.80;69.90;;;;;;6248765;28;19928;-52
2022/12/25 06:46:39;;;;;;;;;;;21.00;70.00;;;;;;6248913;28;19921;-52
2022/12/25 06:49:41;;;;;;;;;;;20.70;70.00;;;;;;6248690;28;19925;-51
2022/12/25 06:52:42;;;;;;;;;;;20.60;69.90;;;;;;6248516;28;20293;-52
2022/12/25 06:55:44;;;;;;;;;;;21.00;70.20;;;;;;6247936;28;19943;-52
2022/12/25 06:58:46;;;;;;;;;;;21.20;69.70;;;;;;6247904;28;20301;-52
2022/12/25 07:01:48;;;;;;;;;;;20.90;69.80;;;;;;6246745;28;20400;-53
2022/12/25 07:04:50;;;;;;;;;;;20.60;69.70;;;;;;6247393;28;19921;-53
2022/12/25 07:07:51;;;;;;;;;;;20.90;69.90;;;;;;6247735;28;19979;-53
2022/12/25 07:10:54;;;;;;;;;;;21.10;70.10;;;;;;6247959;28;19928;-54
2022/12/25 07:13:55;;;;;;;;;;;21.10;70.10;;;;;;6247672;28;19921;-52
2022/12/25 07:16:56;;;;;;;;;;;20.50;69.90;;;;;;6247681;28;19951;-50
2022/12/25 07:19:58;;;;;;;;;;;21.10;70.10;;;;;;6247912;28;19928;-51
2022/12/25 07:22:59;;;;;;;;;;;21.30;70.30;;;;;;6247541;28;19936;-52
2022/12/25 07:26:01;;;;;;;;;;;20.60;70.00;;;;;;6247517;28;19950;-51
2022/12/25 07:29:03;;;;;;;;;;;20.50;69.60;;;;;;6247757;28;20388;-53
2022/12/25 07:32:04;;;;;;;;;;;21.00;69.80;;;;;;6247414;28;19921;-52
2022/12/25 07:35:06;;;;;;;;;;;21.00;69.50;;;;;;6247136;28;19925;-51
2022/12/25 07:38:08;;;;;;;;;;;20.70;69.80;;;;;;6247754;28;20026;-51
2022/12/25 07:41:11;;;;;;;;;;;20.70;69.90;;;;;;6247313;28;20368;-51
2022/12/25 07:44:12;;;;;;;;;;;21.10;70.10;;;;;;6246160;28;19963;-53
2022/12/25 07:47:14;;;;;;;;;;;20.60;70.00;;;;;;6250851;28;19928;-53
2022/12/25 07:50:15;;;;;;;;;;;21.00;70.10;;;;;;6251852;28;19967;-53
2022/12/25 07:53:17;;;;;;;;;;;21.10;69.40;;;;;;6251378;28;20365;-53
2022/12/25 07:56:19;;;;;;;;;;;20.60;70.00;;;;;;6251725;28;20369;-54
2022/12/25 07:59:20;;;;;;;;;;;20.60;69.90;;;;;;6251711;28;20277;-53
2022/12/25 08:02:26;;;;;;;;;;;20.80;69.70;;;;;;6251317;28;19925;-53
2022/12/25 08:05:28;;;;;;;;;;;20.90;70.20;;;;;;6251546;28;19920;-52
2022/12/25 08:08:30;;;;;;;;;;;21.00;70.30;;;;;;6251335;28;19952;-54
2022/12/25 08:11:32;;;;;;;;;;;20.50;70.00;;;;;;6251172;28;19983;-53
2022/12/25 08:14:33;;;;;;;;;;;20.80;70.00;;;;;;6250921;28;19928;-51
2022/12/25 08:17:34;;;;;;;;;;;21.30;70.50;;;;;;6251122;28;19964;-52
2022/12/25 08:20:36;;;;;;;;;;;20.60;70.10;;;;;;6250914;28;19921;-50
2022/12/25 08:23:38;;;;;;;;;;;20.50;69.90;;;;;;6250757;28;19921;-53
2022/12/25 08:26:40;;;;;;;;;;;20.50;69.80;;;;;;6249619;28;19921;-52
2022/12/25 08:29:42;;;;;;;;;;;21.20;70.30;;;;;;6251493;28;19933;-53
2022/12/25 08:32:43;;;;;;;;;;;20.60;69.80;;;;;;6250518;28;19992;-51
2022/12/25 08:35:45;;;;;;;;;;;20.80;69.50;;;;;;6250842;28;19921;-49
2022/12/25 08:38:46;;;;;;;;;;;20.50;70.10;;;;;;6250621;28;19925;-51
2022/12/25 08:41:48;;;;;;;;;;;20.60;70.10;;;;;;6250439;28;20404;-51
2022/12/25 08:44:50;;;;;;;;;;;20.80;70.10;;;;;;6250650;28;19921;-53
2022/12/25 08:47:52;;;;;;;;;;;21.60;70.70;;;;;;6250453;28;20262;-49
2022/12/25 08:50:53;;;;;;;;;;;20.90;70.20;;;;;;6250188;28;19921;-52
2022/12/25 08:53:57;;;;;;;;;;;20.50;70.00;;;;;;6250501;28;19921;-50
2022/12/25 08:56:59;;;;;;;;;;;20.70;70.00;;;;;;6249042;28;19921;-48
2022/12/25 09:00:04;;;;;;;;;;;20.80;70.20;;;;;;6250090;28;19921;-50
2022/12/25 09:03:05;;;;;;;;;;;20.80;70.00;;;;;;6248950;28;20369;-51
2022/12/25 09:06:08;;;;;;;;;;;20.90;70.00;;;;;;6250176;28;19924;-53
2022/12/25 09:09:09;;;;;;;;;;;20.70;70.10;;;;;;6249931;28;20316;-51
2022/12/25 09:12:11;;;;;;;;;;;20.60;70.20;;;;;;6250050;28;19921;-51
2022/12/25 09:15:13;;;;;;;;;;;20.70;70.00;;;;;;6250028;28;19925;-50
2022/12/25 09:18:14;;;;;;;;;;;21.30;71.20;;;;;;6249808;28;19971;-51
2022/12/25 09:21:15;;;;;;;;;;;21.00;70.30;;;;;;6250318;28;20006;-51
2022/12/25 09:24:17;;;;;;;;;;;21.70;70.90;;;;;;6249709;28;19940;-52
2022/12/25 09:27:19;;;;;;;;;;;21.00;70.30;;;;;;6249590;28;19921;-52
2022/12/25 09:30:20;;;;;;;;;;;20.90;70.20;;;;;;6249930;28;19921;-53
2022/12/25 09:33:22;;;;;;;;;;;21.10;70.40;;;;;;6249440;28;19921;-51
2022/12/25 09:36:23;;;;;;;;;;;20.70;69.50;;;;;;6248286;28;19967;-53
2022/12/25 09:39:25;;;;;;;;;;;20.50;69.80;;;;;;6249755;28;19921;-52
2022/12/25 09:42:30;;;;;;;;;;;21.00;70.30;;;;;;6249345;28;19967;-53
2022/12/25 09:45:34;;;;;;;;;;;20.90;70.20;;;;;;6248136;28;20369;-53
2022/12/25 09:48:39;;;;;;;;;;;20.60;70.00;;;;;;6249766;28;19925;-51
2022/12/25 09:51:41;;;;;;;;;;;21.00;70.20;;;;;;6249194;28;19921;-49
2022/12/25 09:54:47;;;;;;;;;;;21.40;70.60;;;;;;6249274;28;19992;-52
2022/12/25 09:57:50;;;;;;;;;;;21.00;70.20;;;;;;6249443;28;19928;-53
2022/12/25 10:00:56;;;;;;;;;;;20.80;70.10;;;;;;6248910;28;19944;-53
2022/12/25 10:04:06;;;;;;;;;;;20.90;70.10;;;;;;6248999;28;19921;-48
2022/12/25 10:07:11;;;;;;;;;;;21.40;70.60;;;;;;6248789;28;19956;-51
2022/12/25 10:10:19;;;;;;;;;;;21.10;70.20;;;;;;6248359;28;20451;-52
2022/12/25 10:13:27;;;;;;;;;;;20.50;69.90;;;;;;6248991;28;20398;-50
2022/12/25 10:16:33;;;;;;;;;;;21.00;70.20;;;;;;6248884;28;19921;-52
2022/12/25 10:19:40;;;;;;;;;;;21.10;70.10;;;;;;6248668;28;19943;-50
2022/12/25 10:22:43;;;;;;;;;;;20.40;69.90;;;;;;6247523;28;19928;-50
2022/12/25 10:25:45;;;;;;;;;;;20.70;69.90;;;;;;6247321;28;19925;-50
2022/12/25 10:28:51;;;;;;;;;;;20.70;69.90;;;;;;6249274;28;19925;-51
2022/12/25 10:31:53;;;;;;;;;;;21.40;70.80;;;;;;6248214;28;20384;-51
2022/12/25 10:34:55;;;;;;;;;;;20.80;69.60;;;;;;6248482;28;20004;-51
2022/12/25 10:37:59;;;;;;;;;;;20.70;70.10;;;;;;6249084;28;19953;-53
2022/12/25 10:41:08;;;;;;;;;;;20.50;69.90;;;;;;6248185;28;19927;-52
2022/12/25 10:44:12;;;;;;;;;;;21.10;70.20;;;;;;6248420;28;20016;-52
2022/12/25 10:47:22;;;;;;;;;;;21.10;70.00;;;;;;6248907;28;19970;-50
2022/12/25 10:50:24;;;;;;;;;;;21.00;70.10;;;;;;6248590;28;19925;-51
2022/12/25 10:53:27;;;;;;;;;;;20.80;70.70;;;;;;6248539;28;20365;-51
2022/12/25 10:56:29;;;;;;;;;;;21.50;70.30;;;;;;6246947;28;19921;-52
2022/12/25 10:59:40;;;;;;;;;;;21.10;70.20;;;;;;6247550;28;19921;-50
2022/12/25 11:02:41;;;;;;;;;;;20.70;70.00;;;;;;6248410;28;19921;-53
2022/12/25 11:05:48;;;;;;;;;;;20.90;70.10;;;;;;6247855;28;19924;-51
2022/12/25 11:08:50;;;;;;;;;;;21.40;70.20;;;;;;6247801;28;19924;-52
2022/12/25 11:11:52;;;;;;;;;;;20.60;69.70;;;;;;6247989;28;19928;-51
2022/12/25 11:14:55;;;;;;;;;;;20.60;69.90;;;;;;6247735;28;19925;-52
2022/12/25 11:17:56;;;;;;;;;;;21.00;70.20;;;;;;6248088;28;20375;-52
2022/12/25 11:20:58;;;;;;;;;;;21.50;70.50;;;;;;6249452;28;20349;-52
2022/12/25 11:24:01;;;;;;;;;;;20.90;70.00;;;;;;6250789;28;19956;-53
2022/12/25 11:27:05;;;;;;;;;;;21.00;70.10;;;;;;6251978;28;19925;-50
2022/12/25 11:30:09;;;;;;;;;;;21.10;70.00;;;;;;6252342;28;19921;-52
2022/12/25 11:33:17;;;;;;;;;;;21.50;70.30;;;;;;6251880;28;19921;-52
2022/12/25 11:36:21;;;;;;;;;;;20.90;69.40;;;;;;6251816;28;20357;-53
2022/12/25 11:39:24;;;;;;;;;;;20.70;69.70;;;;;;6251593;28;19975;-50
2022/12/25 11:42:28;;;;;;;;;;;20.90;70.00;;;;;;6250452;28;19921;-53
2022/12/25 11:45:33;;;;;;;;;;;21.20;69.90;;;;;;6251654;28;19971;-53
2022/12/25 11:48:38;;;;;;;;;;;20.90;70.00;;;;;;6251442;28;19936;-51
2022/12/25 11:51:42;;;;;;;;;;;20.80;69.70;;;;;;6251660;28;19927;-51
2022/12/25 11:54:47;;;;;;;;;;;21.30;70.10;;;;;;6251618;28;20376;-51
2022/12/25 11:57:51;;;;;;;;;;;21.70;70.20;;;;;;6251280;28;19967;-50
2022/12/25 12:00:55;;;;;;;;;;;20.80;69.60;;;;;;6251917;28;19932;-52
2022/12/25 12:03:57;;;;;;;;;;;20.80;69.90;;;;;;6251438;28;19921;-51
2022/12/25 12:07:00;;;;;;;;;;;21.20;70.00;;;;;;6251543;28;19956;-50
2022/12/25 12:10:06;;;;;;;;;;;21.60;70.20;;;;;;6251726;28;19928;-52
2022/12/25 12:13:21;;;;;;;;;;;20.90;69.80;;;;;;6251467;28;19961;-51
2022/12/25 12:16:23;;;;;;;;;;;20.80;69.60;;;;;;6251010;28;19925;-49
2022/12/25 12:19:25;;;;;;;;;;;21.10;69.90;;;;;;6251763;28;19933;-51
2022/12/25 12:22:27;;;;;;;;;;;21.60;70.20;;;;;;6250809;28;19967;-53
2022/12/25 12:25:29;;;;;;;;;;;20.90;69.90;;;;;;6251128;28;19921;-51
2022/12/25 12:28:38;;;;;;;;;;;20.70;69.60;;;;;;6250873;28;19921;-51
2022/12/25 12:31:41;;;;;;;;;;;21.10;69.80;;;;;;6250182;28;19990;-52
2022/12/25 12:34:46;;;;;;;;;;;21.10;69.30;;;;;;6251392;28;19956;-51
2022/12/25 12:37:50;;;;;;;;;;;21.30;69.90;;;;;;6251313;28;19960;-51
2022/12/25 12:40:52;;;;;;;;;;;21.10;69.30;;;;;;6250493;28;19921;-51
2022/12/25 12:43:55;;;;;;;;;;;21.00;69.80;;;;;;6249368;28;19921;-53
2022/12/25 12:46:57;;;;;;;;;;;21.70;70.30;;;;;;6249262;28;19921;-49
2022/12/25 12:50:00;;;;;;;;;;;21.30;70.00;;;;;;6250361;28;20361;-53
2022/12/25 12:53:15;;;;;;;;;;;20.60;69.60;;;;;;6249089;28;19921;-54
2022/12/25 12:56:17;;;;;;;;;;;21.20;69.90;;;;;;6249325;28;20416;-51
2022/12/25 12:59:18;;;;;;;;;;;21.70;70.30;;;;;;6249238;28;20298;-52
2022/12/25 13:02:29;;;;;;;;;;;20.90;69.90;;;;;;6250463;28;19975;-52
2022/12/25 13:05:35;;;;;;;;;;;21.20;69.90;;;;;;6250245;28;19921;-51
2022/12/25 13:08:42;;;;;;;;;;;21.00;69.90;;;;;;6250063;28;19921;-50
2022/12/25 13:11:44;;;;;;;;;;;21.60;70.20;;;;;;6249827;28;20372;-51
2022/12/25 13:14:46;;;;;;;;;;;21.10;69.80;;;;;;6248570;28;20011;-51
2022/12/25 13:17:48;;;;;;;;;;;20.80;69.70;;;;;;6248503;28;19949;-52
2022/12/25 13:20:54;;;;;;;;;;;21.30;70.10;;;;;;6250037;28;20373;-52
2022/12/25 13:23:56;;;;;;;;;;;21.80;70.50;;;;;;6249955;28;19921;-52
2022/12/25 13:26:58;;;;;;;;;;;21.50;70.00;;;;;;6249790;28;19944;-50
2022/12/25 13:30:10;;;;;;;;;;;20.90;69.90;;;;;;6248391;28;19928;-52
2022/12/25 13:33:16;;;;;;;;;;;21.10;69.50;;;;;;6249789;28;19928;-50
2022/12/25 13:36:17;;;;;;;;;;;21.10;69.40;;;;;;6248183;28;19936;-50
2022/12/25 13:39:19;;;;;;;;;;;21.30;70.30;;;;;;6249302;28;19921;-48
2022/12/25 13:42:21;;;;;;;;;;;20.80;69.90;;;;;;6249779;28;19921;-50
2022/12/25 13:45:24;;;;;;;;;;;21.40;70.20;;;;;;6248570;28;20020;-51
2022/12/25 13:48:26;;;;;;;;;;;21.60;70.40;;;;;;6248074;28;19921;-49
2022/12/25 13:51:27;;;;;;;;;;;21.00;70.00;;;;;;6249442;28;19921;-52
2022/12/25 13:54:29;;;;;;;;;;;20.90;70.00;;;;;;6249318;28;19921;-53
2022/12/25 13:57:33;;;;;;;;;;;21.10;69.80;;;;;;6249091;28;19971;-53
2022/12/25 14:00:36;;;;;;;;;;;21.50;69.50;;;;;;6249382;28;19925;-52
2022/12/25 14:03:40;;;;;;;;;;;21.00;70.00;;;;;;6249017;28;19921;-53
2022/12/25 14:06:41;;;;;;;;;;;21.30;70.20;;;;;;6249308;28;19921;-51
2022/12/25 14:09:43;;;;;;;;;;;20.90;69.70;;;;;;6249199;28;19921;-51
2022/12/25 14:12:48;;;;;;;;;;;21.30;70.20;;;;;;6248760;28;20006;-51
2022/12/25 14:15:50;;;;;;;;;;;21.10;70.00;;;;;;6248767;28;19928;-53
2022/12/25 14:18:53;;;;;;;;;;;21.00;69.90;;;;;;6249027;28;19949;-52
2022/12/25 14:21:58;;;;;;;;;;;20.90;69.90;;;;;;6248854;28;19925;-52
2022/12/25 14:25:00;;;;;;;;;;;21.80;70.30;;;;;;6248379;28;19928;-51
2022/12/25 14:28:05;;;;;;;;;;;21.10;69.90;;;;;;6248848;28;20289;-51
2022/12/25 14:31:10;;;;;;;;;;;21.50;70.30;;;;;;6247179;28;19928;-52
2022/12/25 14:34:14;;;;;;;;;;;21.10;69.60;;;;;;6248209;28;20400;-51
2022/12/25 14:37:17;;;;;;;;;;;21.70;70.40;;;;;;6248210;28;19924;-52
2022/12/25 14:40:20;;;;;;;;;;;21.00;69.90;;;;;;6248530;28;19921;-52
2022/12/25 14:43:23;;;;;;;;;;;21.10;70.10;;;;;;6248303;28;19924;-52
2022/12/25 14:46:26;;;;;;;;;;;21.00;70.10;;;;;;6248022;28;19921;-53
2022/12/25 14:49:30;;;;;;;;;;;22.00;70.80;;;;;;6248306;28;19996;-50
2022/12/25 14:52:37;;;;;;;;;;;21.20;70.20;;;;;;6246932;28;19944;-52
2022/12/25 14:55:38;;;;;;;;;;;21.50;70.10;;;;;;6247921;28;20011;-51
2022/12/25 14:58:41;;;;;;;;;;;20.90;69.90;;;;;;6248257;28;19921;-52
2022/12/25 15:01:43;;;;;;;;;;;21.80;70.60;;;;;;6248039;28;19925;-52
2022/12/25 15:04:45;;;;;;;;;;;20.90;69.60;;;;;;6246702;28;19921;-52
2022/12/25 15:07:56;;;;;;;;;;;21.20;70.20;;;;;;6248143;28;19971;-54
2022/12/25 15:10:58;;;;;;;;;;;21.20;70.20;;;;;;6248018;28;19920;-52
2022/12/25 15:14:03;;;;;;;;;;;21.00;70.10;;;;;;6247952;28;20397;-51
2022/12/25 15:17:05;;;;;;;;;;;21.00;70.20;;;;;;6248042;28;19928;-51
2022/12/25 15:20:09;;;;;;;;;;;21.30;69.80;;;;;;6247938;28;19921;-52
2022/12/25 15:23:13;;;;;;;;;;;21.30;70.20;;;;;;6247589;28;19928;-52
2022/12/25 15:26:22;;;;;;;;;;;20.90;70.10;;;;;;6247885;28;19928;-50
2022/12/25 15:29:24;;;;;;;;;;;21.40;70.40;;;;;;6247723;28;19955;-52
2022/12/25 15:32:45;;;;;;;;;;;21.80;70.90;;;;;;6246436;28;19921;-52
2022/12/25 15:35:47;;;;;;;;;;;21.10;69.70;;;;;;6247439;28;20293;-52
2022/12/25 15:38:49;;;;;;;;;;;21.80;70.60;;;;;;6247545;28;19968;-51
2022/12/25 15:45:03;;;;;;;;;;;21.30;70.40;;;;;;6247200;28;19979;-53
2022/12/25 15:48:04;;;;;;;;;;;21.30;70.30;;;;;;6247870;28;19921;-52
2022/12/25 15:51:06;;;;;;;;;;;21.80;70.90;;;;;;6247899;28;20388;-53
2022/12/25 15:54:07;;;;;;;;;;;21.20;70.50;;;;;;6246893;28;19921;-52
2022/12/25 15:57:14;;;;;;;;;;;20.90;70.20;;;;;;6247344;28;19960;-51
2022/12/25 16:00:17;;;;;;;;;;;21.10;70.20;;;;;;6247215;28;19928;-51
2022/12/25 16:03:19;;;;;;;;;;;21.90;70.80;;;;;;6245804;28;19921;-49
2022/12/25 16:06:21;;;;;;;;;;;20.90;70.00;;;;;;6247825;28;20372;-52
2022/12/25 16:09:22;;;;;;;;;;;21.60;70.70;;;;;;6251367;28;19980;-52
2022/12/25 16:12:23;;;;;;;;;;;21.20;70.50;;;;;;6251000;28;19984;-52
2022/12/25 16:15:24;;;;;;;;;;;21.90;71.10;;;;;;6251331;28;20386;-52
2022/12/25 16:18:26;;;;;;;;;;;21.00;70.30;;;;;;6250958;28;19921;-51
2022/12/25 16:21:31;;;;;;;;;;;21.00;70.10;;;;;;6250894;28;19921;-50
2022/12/25 16:24:32;;;;;;;;;;;21.10;70.40;;;;;;6250010;28;20336;-50
2022/12/25 16:27:33;;;;;;;;;;;21.40;70.80;;;;;;6251660;28;20326;-51
2022/12/25 16:30:35;;;;;;;;;;;20.70;70.20;;;;;;6250761;28;20305;-50
2022/12/25 16:33:36;;;;;;;;;;;21.10;70.00;;;;;;6251147;28;19953;-54
2022/12/25 16:36:38;;;;;;;;;;;21.40;70.90;;;;;;6250808;28;19928;-52
2022/12/25 16:39:41;;;;;;;;;;;21.60;70.90;;;;;;6250605;28;20035;-52
2022/12/25 16:42:42;;;;;;;;;;;21.10;70.20;;;;;;6250801;28;19991;-52
2022/12/25 16:45:44;;;;;;;;;;;21.70;71.00;;;;;;6250536;28;20375;-51
2022/12/25 16:48:45;;;;;;;;;;;21.40;70.80;;;;;;6250459;28;19952;-51
2022/12/25 16:51:47;;;;;;;;;;;21.10;70.40;;;;;;6250664;28;19968;-53
2022/12/25 16:54:49;;;;;;;;;;;21.10;70.50;;;;;;6250834;28;19921;-52
2022/12/25 16:57:50;;;;;;;;;;;21.30;70.50;;;;;;6250276;28;19920;-53
2022/12/25 17:00:51;;;;;;;;;;;20.90;71.20;;;;;;6250433;28;19930;-51
2022/12/25 17:03:53;;;;;;;;;;;21.70;71.00;;;;;;6250169;28;19925;-53
2022/12/25 17:06:54;;;;;;;;;;;20.90;70.60;;;;;;6250446;28;20373;-53
2022/12/25 17:09:56;;;;;;;;;;;21.60;71.00;;;;;;6250384;28;20356;-50
2022/12/25 17:12:57;;;;;;;;;;;20.70;70.30;;;;;;6249945;28;19921;-52
2022/12/25 17:15:58;;;;;;;;;;;20.70;70.50;;;;;;6249883;28;19921;-51
2022/12/25 17:19:01;;;;;;;;;;;20.70;70.50;;;;;;6248927;28;19921;-51
2022/12/25 17:22:03;;;;;;;;;;;21.40;71.10;;;;;;6249857;28;19929;-52
2022/12/25 17:25:05;;;;;;;;;;;21.20;70.70;;;;;;6250079;28;19921;-52
2022/12/25 17:28:06;;;;;;;;;;;21.30;70.60;;;;;;6250040;28;20462;-51
2022/12/25 17:31:08;;;;;;;;;;;21.20;70.40;;;;;;6249695;28;19975;-52
2022/12/25 17:34:10;;;;;;;;;;;21.00;70.20;;;;;;6248214;28;19940;-51
2022/12/25 17:37:12;;;;;;;;;;;21.10;70.60;;;;;;6248161;28;19967;-53
2022/12/25 17:40:13;;;;;;;;;;;21.60;71.00;;;;;;6249829;28;19978;-53
2022/12/25 17:43:14;;;;;;;;;;;20.90;70.70;;;;;;6249784;28;19921;-53
2022/12/25 17:46:23;;;;;;;;;;;21.00;70.90;;;;;;6249171;28;19921;-53
2022/12/25 17:49:24;;;;;;;;;;;21.50;70.90;;;;;;6249376;28;20300;-51
2022/12/25 17:52:26;;;;;;;;;;;21.30;70.90;;;;;;6249135;28;19968;-53
2022/12/25 17:55:32;;;;;;;;;;;20.90;70.60;;;;;;6249045;28;19920;-52
2022/12/25 17:58:34;;;;;;;;;;;21.20;71.00;;;;;;6249245;28;19936;-52
2022/12/25 18:01:36;;;;;;;;;;;21.00;70.80;;;;;;6249114;28;19921;-53
2022/12/25 18:04:38;;;;;;;;;;;20.70;70.60;;;;;;6248818;28;19921;-51
2022/12/25 18:07:40;;;;;;;;;;;20.60;70.40;;;;;;6249090;28;19921;-51
2022/12/25 18:10:42;;;;;;;;;;;21.20;70.80;;;;;;6248809;28;19928;-50
2022/12/25 18:13:47;;;;;;;;;;;21.00;71.30;;;;;;6248606;28;19921;-52
2022/12/25 18:16:48;;;;;;;;;;;20.70;70.40;;;;;;6248976;28;19921;-51
2022/12/25 18:19:52;;;;;;;;;;;20.80;70.80;;;;;;6248758;28;20336;-53
2022/12/25 18:22:54;;;;;;;;;;;21.30;70.70;;;;;;6248577;28;19925;-52
2022/12/25 18:25:55;;;;;;;;;;;20.90;70.70;;;;;;6248838;28;19921;-51
2022/12/25 18:28:57;;;;;;;;;;;20.70;70.50;;;;;;6248071;28;20312;-49
2022/12/25 18:31:58;;;;;;;;;;;21.20;70.90;;;;;;6248304;28;19925;-52
2022/12/25 18:35:00;;;;;;;;;;;20.90;70.00;;;;;;6248570;28;19971;-51
2022/12/25 18:38:01;;;;;;;;;;;21.20;71.10;;;;;;6248267;28;19928;-51
2022/12/25 18:41:03;;;;;;;;;;;20.70;70.70;;;;;;6248239;28;19996;-51
2022/12/25 18:44:05;;;;;;;;;;;21.10;70.70;;;;;;6247120;28;20273;-52
2022/12/25 18:47:06;;;;;;;;;;;21.30;71.00;;;;;;6248200;28;19943;-52
2022/12/25 18:50:08;;;;;;;;;;;21.10;71.00;;;;;;6248935;28;19952;-51
2022/12/25 18:53:10;;;;;;;;;;;20.70;70.50;;;;;;6248294;28;19921;-51
2022/12/25 18:56:13;;;;;;;;;;;20.80;70.60;;;;;;6248031;28;19928;-51
2022/12/25 18:59:15;;;;;;;;;;;21.30;70.80;;;;;;6246801;28;20039;-51
2022/12/25 19:02:16;;;;;;;;;;;20.70;70.20;;;;;;6248159;28;19925;-53
2022/12/25 19:05:18;;;;;;;;;;;20.60;70.50;;;;;;6248338;28;19925;-51
2022/12/25 19:08:20;;;;;;;;;;;21.10;70.90;;;;;;6247786;28;19967;-51
2022/12/25 19:11:21;;;;;;;;;;;21.40;71.00;;;;;;6248120;28;20455;-53
2022/12/25 19:14:23;;;;;;;;;;;20.50;70.30;;;;;;6246510;28;20020;-52
2022/12/25 19:17:24;;;;;;;;;;;20.50;70.50;;;;;;6247621;28;20262;-52
2022/12/25 19:20:33;;;;;;;;;;;20.50;70.70;;;;;;6247974;28;19927;-52
2022/12/25 19:23:36;;;;;;;;;;;20.70;70.70;;;;;;6247852;28;20384;-52
2022/12/25 19:26:37;;;;;;;;;;;20.90;70.50;;;;;;6247549;28;19921;-52
2022/12/25 19:29:39;;;;;;;;;;;20.80;70.70;;;;;;6247781;28;19928;-49
2022/12/25 19:32:40;;;;;;;;;;;21.10;70.90;;;;;;6247436;28;19922;-51
2022/12/25 19:35:41;;;;;;;;;;;20.80;69.90;;;;;;6247386;28;19921;-50
2022/12/25 19:38:43;;;;;;;;;;;20.90;70.60;;;;;;6247164;28;19921;-50